This is the latest recevied weather packets stored in our database for station/object HP1COO-13. If no packets are shown the sender has not sent any weather packets the latest 10 day(s).
| Time | Temp. | Humidity | Pressure | Rain* | Wind** | Luminosity | Snow |
|---|---|---|---|---|---|---|---|
| 1777587075 | 27.22° C | 89% | 1003.4 hPa | 0 mm | - | - | - |
| 1777586442 | 27.78° C | 89% | 1003.4 hPa | 0 mm | - | - | - |
| 1777585809 | 27.78° C | 89% | 1003 hPa | 0 mm | - | - | - |
| 1777585176 | 27.22° C | 90% | 1003.1 hPa | 0 mm | - | - | - |
| 1777584543 | 27.22° C | 90% | 1003.4 hPa | 0 mm | - | - | - |
| 1777583910 | 27.22° C | 90% | 1003.4 hPa | 0 mm | - | - | - |
| 1777583277 | 27.22° C | 89% | 1003.7 hPa | 0 mm | - | - | - |
| 1777582644 | 27.22° C | 89% | 1003.8 hPa | 0 mm | - | - | - |
| 1777582011 | 27.22° C | 89% | 1003.9 hPa | 0 mm | - | - | - |
| 1777581378 | 27.22° C | 89% | 1003.7 hPa | 0 mm | - | - | - |
| 1777580745 | 26.67° C | 89% | 1003.7 hPa | 0 mm | - | - | - |
| 1777580112 | 26.67° C | 89% | 1003.4 hPa | 0 mm | - | - | - |
| 1777579479 | 27.22° C | 89% | 1003.4 hPa | 0 mm | - | - | - |
| 1777578846 | 27.22° C | 88% | 1003.4 hPa | 0 mm | - | - | - |
| 1777577580 | 27.78° C | 89% | 1004.2 hPa | 0.76 mm | - | - | - |
| 1777576947 | 28.33° C | 88% | 1004.2 hPa | 1.78 mm | - | - | - |
| 1777576314 | 28.33° C | 90% | 1004.2 hPa | 2.03 mm | - | - | - |
| 1777575681 | 28.33° C | 91% | 1004.5 hPa | 2.03 mm | - | - | - |
| 1777575048 | 28.33° C | 91% | 1004.7 hPa | 2.03 mm | - | - | - |
| 1777574415 | 28.33° C | 89% | 1005.1 hPa | 2.03 mm | - | - | - |
| 1777573782 | 27.78° C | 89% | 1005 hPa | 1.78 mm | - | - | - |
| 1777573149 | 27.78° C | 90% | 1005 hPa | 5.59 mm | - | - | - |
| 1777571883 | 27.22° C | 93% | 1005.3 hPa | 10.67 mm | - | - | - |
| 1777571250 | 26.67° C | 94% | 1005.7 hPa | 10.67 mm | - | - | - |
| 1777570617 | 26.67° C | 93% | 1006 hPa | 10.41 mm | - | - | - |
* Rain latest hour (hover to see other rain measurements)
** Current wind speed in m/s (hover to see current wind gust speed)